sensor_id;sensor_type;location;lat;lon;timestamp;pressure;altitude;pressure_sealevel;temperature;humidity
56176;BME280;63065;51.082;17.016;2022-11-25T00:02:13;100306.78;;;6.17;49.99
56176;BME280;63065;51.082;17.016;2022-11-25T00:04:37;100300.73;;;5.93;50.02
56176;BME280;63065;51.082;17.016;2022-11-25T00:07:03;100300.33;;;5.98;50.00
56176;BME280;63065;51.082;17.016;2022-11-25T00:09:28;100300.27;;;6.16;50.42
56176;BME280;63065;51.082;17.016;2022-11-25T00:11:54;100298.95;;;5.87;50.35
56176;BME280;63065;51.082;17.016;2022-11-25T00:14:20;100298.09;;;6.17;50.24
56176;BME280;63065;51.082;17.016;2022-11-25T00:16:45;100300.34;;;6.25;50.02
56176;BME280;63065;51.082;17.016;2022-11-25T00:19:10;100301.91;;;5.96;50.30
56176;BME280;63065;51.082;17.016;2022-11-25T00:21:36;100302.56;;;6.22;50.27
56176;BME280;63065;51.082;17.016;2022-11-25T00:24:03;100304.15;;;6.17;50.61
56176;BME280;63065;51.082;17.016;2022-11-25T00:26:28;100304.48;;;5.99;50.42
56176;BME280;63065;51.082;17.016;2022-11-25T00:28:53;100306.18;;;6.05;50.76
56176;BME280;63065;51.082;17.016;2022-11-25T00:31:19;100307.36;;;6.14;50.82
56176;BME280;63065;51.082;17.016;2022-11-25T00:33:44;100305.99;;;6.00;50.23
56176;BME280;63065;51.082;17.016;2022-11-25T00:36:14;100305.91;;;6.04;50.36
56176;BME280;63065;51.082;17.016;2022-11-25T00:38:34;100312.48;;;5.85;50.25
56176;BME280;63065;51.082;17.016;2022-11-25T00:41:00;100314.45;;;6.34;50.53
56176;BME280;63065;51.082;17.016;2022-11-25T00:43:26;100314.09;;;6.12;50.28
56176;BME280;63065;51.082;17.016;2022-11-25T00:45:51;100316.02;;;6.11;50.14
56176;BME280;63065;51.082;17.016;2022-11-25T00:48:16;100315.72;;;6.28;50.75
56176;BME280;63065;51.082;17.016;2022-11-25T00:50:42;100315.09;;;6.11;51.16
56176;BME280;63065;51.082;17.016;2022-11-25T00:53:07;100316.49;;;5.95;50.94
56176;BME280;63065;51.082;17.016;2022-11-25T00:55:32;100316.04;;;6.05;50.69
56176;BME280;63065;51.082;17.016;2022-11-25T00:57:58;100314.18;;;6.17;50.43
56176;BME280;63065;51.082;17.016;2022-11-25T01:00:24;100314.65;;;6.20;50.35
56176;BME280;63065;51.082;17.016;2022-11-25T01:02:49;100315.82;;;6.02;50.44
56176;BME280;63065;51.082;17.016;2022-11-25T01:05:15;100315.80;;;6.26;50.60
56176;BME280;63065;51.082;17.016;2022-11-25T01:07:41;100321.70;;;6.18;50.70
56176;BME280;63065;51.082;17.016;2022-11-25T01:10:07;100327.10;;;5.97;50.68
56176;BME280;63065;51.082;17.016;2022-11-25T01:12:32;100327.50;;;6.03;50.40
56176;BME280;63065;51.082;17.016;2022-11-25T01:14:58;100328.80;;;6.29;50.61
56176;BME280;63065;51.082;17.016;2022-11-25T01:17:23;100323.19;;;6.34;50.57
56176;BME280;63065;51.082;17.016;2022-11-25T01:19:48;100324.38;;;6.08;50.59
56176;BME280;63065;51.082;17.016;2022-11-25T01:22:14;100327.19;;;6.08;50.57
56176;BME280;63065;51.082;17.016;2022-11-25T01:24:39;100323.82;;;6.27;50.58
56176;BME280;63065;51.082;17.016;2022-11-25T01:27:04;100318.05;;;6.61;50.20
56176;BME280;63065;51.082;17.016;2022-11-25T01:29:30;100320.13;;;6.14;50.08
56176;BME280;63065;51.082;17.016;2022-11-25T01:31:55;100321.97;;;6.36;50.27
56176;BME280;63065;51.082;17.016;2022-11-25T01:34:22;100323.14;;;6.34;50.10
56176;BME280;63065;51.082;17.016;2022-11-25T01:36:46;100326.53;;;6.35;50.19
56176;BME280;63065;51.082;17.016;2022-11-25T01:39:15;100325.57;;;5.99;50.84
56176;BME280;63065;51.082;17.016;2022-11-25T01:41:36;100326.57;;;6.51;50.67
56176;BME280;63065;51.082;17.016;2022-11-25T01:44:08;100326.79;;;6.05;50.42
56176;BME280;63065;51.082;17.016;2022-11-25T01:46:33;100325.43;;;6.32;50.27
56176;BME280;63065;51.082;17.016;2022-11-25T01:48:56;100326.55;;;6.60;50.31
56176;BME280;63065;51.082;17.016;2022-11-25T01:51:23;100327.24;;;6.14;50.24
56176;BME280;63065;51.082;17.016;2022-11-25T01:53:44;100329.35;;;6.37;50.32
56176;BME280;63065;51.082;17.016;2022-11-25T01:56:09;100332.75;;;6.14;50.30
56176;BME280;63065;51.082;17.016;2022-11-25T01:58:36;100333.10;;;6.39;50.29
56176;BME280;63065;51.082;17.016;2022-11-25T02:01:00;100329.83;;;6.19;50.21
56176;BME280;63065;51.082;17.016;2022-11-25T02:03:29;100324.58;;;6.48;50.30
56176;BME280;63065;51.082;17.016;2022-11-25T02:05:58;100321.27;;;6.55;50.14
56176;BME280;63065;51.082;17.016;2022-11-25T02:08:18;100319.07;;;6.45;50.14
56176;BME280;63065;51.082;17.016;2022-11-25T02:10:42;100315.93;;;6.43;50.17
56176;BME280;63065;51.082;17.016;2022-11-25T02:13:08;100314.38;;;6.40;50.27
56176;BME280;63065;51.082;17.016;2022-11-25T02:15:33;100315.92;;;6.39;50.28
56176;BME280;63065;51.082;17.016;2022-11-25T02:17:59;100316.24;;;6.27;50.32
56176;BME280;63065;51.082;17.016;2022-11-25T02:20:25;100315.03;;;6.11;50.51
56176;BME280;63065;51.082;17.016;2022-11-25T02:22:57;100317.60;;;6.37;50.73
56176;BME280;63065;51.082;17.016;2022-11-25T02:25:16;100321.68;;;6.11;50.67
56176;BME280;63065;51.082;17.016;2022-11-25T02:27:42;100324.89;;;6.40;50.59
56176;BME280;63065;51.082;17.016;2022-11-25T02:30:06;100327.03;;;5.94;50.54
56176;BME280;63065;51.082;17.016;2022-11-25T02:32:31;100326.56;;;6.43;50.65
56176;BME280;63065;51.082;17.016;2022-11-25T02:34:56;100331.92;;;6.23;50.50
56176;BME280;63065;51.082;17.016;2022-11-25T02:37:22;100333.06;;;6.22;50.63
56176;BME280;63065;51.082;17.016;2022-11-25T02:39:47;100336.26;;;6.25;50.53
56176;BME280;63065;51.082;17.016;2022-11-25T02:42:12;100337.84;;;6.28;50.46
56176;BME280;63065;51.082;17.016;2022-11-25T02:44:37;100337.99;;;6.31;50.40
56176;BME280;63065;51.082;17.016;2022-11-25T02:47:02;100336.97;;;6.36;50.23
56176;BME280;63065;51.082;17.016;2022-11-25T02:49:28;100336.83;;;6.12;50.32
56176;BME280;63065;51.082;17.016;2022-11-25T02:51:53;100336.38;;;6.41;50.26
56176;BME280;63065;51.082;17.016;2022-11-25T02:54:19;100338.13;;;6.25;50.16
56176;BME280;63065;51.082;17.016;2022-11-25T02:56:44;100341.91;;;6.45;50.20
56176;BME280;63065;51.082;17.016;2022-11-25T02:59:10;100340.53;;;6.31;50.33
56176;BME280;63065;51.082;17.016;2022-11-25T03:01:35;100337.12;;;6.38;50.38
56176;BME280;63065;51.082;17.016;2022-11-25T03:04:00;100338.02;;;6.36;50.35
56176;BME280;63065;51.082;17.016;2022-11-25T03:06:25;100341.70;;;6.19;50.66
56176;BME280;63065;51.082;17.016;2022-11-25T03:08:50;100339.26;;;6.53;50.49
56176;BME280;63065;51.082;17.016;2022-11-25T03:11:16;100346.14;;;6.28;50.34
56176;BME280;63065;51.082;17.016;2022-11-25T03:13:42;100345.63;;;6.30;50.33
56176;BME280;63065;51.082;17.016;2022-11-25T03:16:07;100346.73;;;6.21;50.53
56176;BME280;63065;51.082;17.016;2022-11-25T03:18:32;100348.21;;;6.10;50.77
56176;BME280;63065;51.082;17.016;2022-11-25T03:20:57;100346.73;;;6.00;50.68
56176;BME280;63065;51.082;17.016;2022-11-25T03:23:23;100342.97;;;5.65;51.00
56176;BME280;63065;51.082;17.016;2022-11-25T03:25:48;100345.82;;;5.88;50.61
56176;BME280;63065;51.082;17.016;2022-11-25T03:28:14;100338.89;;;5.93;50.80
56176;BME280;63065;51.082;17.016;2022-11-25T03:30:39;100346.71;;;6.24;50.63
56176;BME280;63065;51.082;17.016;2022-11-25T03:33:04;100347.58;;;6.29;50.56
56176;BME280;63065;51.082;17.016;2022-11-25T03:35:30;100348.63;;;6.14;50.41
56176;BME280;63065;51.082;17.016;2022-11-25T03:37:56;100348.85;;;6.11;50.39
56176;BME280;63065;51.082;17.016;2022-11-25T03:40:22;100345.41;;;6.04;50.23
56176;BME280;63065;51.082;17.016;2022-11-25T03:42:46;100348.64;;;6.26;50.17
56176;BME280;63065;51.082;17.016;2022-11-25T03:45:14;100350.46;;;6.40;50.29
56176;BME280;63065;51.082;17.016;2022-11-25T03:47:38;100355.29;;;6.51;50.14
56176;BME280;63065;51.082;17.016;2022-11-25T03:50:05;100352.55;;;6.33;50.57
56176;BME280;63065;51.082;17.016;2022-11-25T03:52:29;100358.56;;;6.22;50.35
56176;BME280;63065;51.082;17.016;2022-11-25T03:54:55;100363.31;;;6.16;50.48
56176;BME280;63065;51.082;17.016;2022-11-25T03:57:20;100364.40;;;6.41;50.39
56176;BME280;63065;51.082;17.016;2022-11-25T03:59:45;100364.43;;;6.20;50.64
56176;BME280;63065;51.082;17.016;2022-11-25T04:02:11;100364.10;;;6.28;50.24
56176;BME280;63065;51.082;17.016;2022-11-25T04:04:36;100362.57;;;6.29;50.18
56176;BME280;63065;51.082;17.016;2022-11-25T04:07:02;100362.31;;;6.40;50.20
56176;BME280;63065;51.082;17.016;2022-11-25T04:09:27;100363.65;;;6.09;50.34
56176;BME280;63065;51.082;17.016;2022-11-25T04:11:53;100366.74;;;6.22;50.56
56176;BME280;63065;51.082;17.016;2022-11-25T04:14:19;100367.59;;;6.26;50.34
56176;BME280;63065;51.082;17.016;2022-11-25T04:16:44;100365.73;;;6.17;50.43
56176;BME280;63065;51.082;17.016;2022-11-25T04:19:09;100364.02;;;6.23;50.46
56176;BME280;63065;51.082;17.016;2022-11-25T04:21:35;100367.72;;;6.31;50.38
56176;BME280;63065;51.082;17.016;2022-11-25T04:24:00;100365.71;;;6.40;50.66
56176;BME280;63065;51.082;17.016;2022-11-25T04:26:25;100368.88;;;6.18;50.77
56176;BME280;63065;51.082;17.016;2022-11-25T04:28:51;100366.27;;;6.61;50.50
56176;BME280;63065;51.082;17.016;2022-11-25T04:31:16;100363.09;;;5.93;51.01
56176;BME280;63065;51.082;17.016;2022-11-25T04:33:42;100363.29;;;6.24;50.64
56176;BME280;63065;51.082;17.016;2022-11-25T04:36:08;100363.78;;;6.52;50.72
56176;BME280;63065;51.082;17.016;2022-11-25T04:38:33;100368.31;;;6.29;50.54
56176;BME280;63065;51.082;17.016;2022-11-25T04:40:58;100367.42;;;6.32;50.52
56176;BME280;63065;51.082;17.016;2022-11-25T04:43:24;100365.93;;;6.34;50.53
56176;BME280;63065;51.082;17.016;2022-11-25T04:45:49;100365.26;;;6.44;50.33
56176;BME280;63065;51.082;17.016;2022-11-25T04:48:15;100367.11;;;6.24;50.25
56176;BME280;63065;51.082;17.016;2022-11-25T04:50:40;100366.97;;;6.38;50.23
56176;BME280;63065;51.082;17.016;2022-11-25T04:53:05;100368.28;;;6.28;50.81
56176;BME280;63065;51.082;17.016;2022-11-25T04:55:31;100368.60;;;6.26;50.79
56176;BME280;63065;51.082;17.016;2022-11-25T04:57:57;100369.05;;;6.31;50.73
56176;BME280;63065;51.082;17.016;2022-11-25T05:00:22;100370.58;;;6.11;50.71
56176;BME280;63065;51.082;17.016;2022-11-25T05:02:47;100367.27;;;6.51;50.43
56176;BME280;63065;51.082;17.016;2022-11-25T05:05:12;100369.38;;;6.55;50.32
56176;BME280;63065;51.082;17.016;2022-11-25T05:07:38;100373.15;;;6.57;50.35
56176;BME280;63065;51.082;17.016;2022-11-25T05:10:03;100373.18;;;6.29;50.44
56176;BME280;63065;51.082;17.016;2022-11-25T05:12:28;100377.18;;;6.43;50.56
56176;BME280;63065;51.082;17.016;2022-11-25T05:14:54;100375.13;;;6.25;50.56
56176;BME280;63065;51.082;17.016;2022-11-25T05:17:20;100373.56;;;6.33;50.36
56176;BME280;63065;51.082;17.016;2022-11-25T05:19:45;100376.09;;;6.37;50.28
56176;BME280;63065;51.082;17.016;2022-11-25T05:22:10;100378.34;;;6.40;50.25
56176;BME280;63065;51.082;17.016;2022-11-25T05:24:35;100372.58;;;6.73;50.29
56176;BME280;63065;51.082;17.016;2022-11-25T05:27:00;100368.97;;;6.65;50.10
56176;BME280;63065;51.082;17.016;2022-11-25T05:29:26;100376.82;;;6.62;50.10
56176;BME280;63065;51.082;17.016;2022-11-25T05:31:51;100384.85;;;6.55;50.19
56176;BME280;63065;51.082;17.016;2022-11-25T05:34:17;100386.24;;;6.51;50.29
56176;BME280;63065;51.082;17.016;2022-11-25T05:36:43;100389.69;;;6.66;50.25
56176;BME280;63065;51.082;17.016;2022-11-25T05:39:08;100393.15;;;6.92;50.17
56176;BME280;63065;51.082;17.016;2022-11-25T05:41:34;100397.45;;;6.63;50.24
56176;BME280;63065;51.082;17.016;2022-11-25T05:43:59;100402.95;;;6.35;50.71
56176;BME280;63065;51.082;17.016;2022-11-25T05:46:25;100408.88;;;6.51;50.65
56176;BME280;63065;51.082;17.016;2022-11-25T05:48:52;100409.24;;;6.63;50.48
56176;BME280;63065;51.082;17.016;2022-11-25T05:51:16;100411.31;;;6.64;50.39
56176;BME280;63065;51.082;17.016;2022-11-25T05:53:41;100415.38;;;6.47;50.35
56176;BME280;63065;51.082;17.016;2022-11-25T05:56:08;100414.17;;;6.75;50.24
56176;BME280;63065;51.082;17.016;2022-11-25T05:58:32;100420.21;;;6.75;50.24
56176;BME280;63065;51.082;17.016;2022-11-25T06:00:57;100422.36;;;6.80;50.21
56176;BME280;63065;51.082;17.016;2022-11-25T06:03:23;100427.32;;;6.79;50.27
56176;BME280;63065;51.082;17.016;2022-11-25T06:05:49;100422.15;;;6.84;50.19
56176;BME280;63065;51.082;17.016;2022-11-25T06:08:14;100421.46;;;6.87;50.07
56176;BME280;63065;51.082;17.016;2022-11-25T06:10:40;100419.44;;;6.88;49.97
56176;BME280;63065;51.082;17.016;2022-11-25T06:13:05;100420.46;;;6.88;50.08
56176;BME280;63065;51.082;17.016;2022-11-25T06:15:30;100421.53;;;6.71;49.91
56176;BME280;63065;51.082;17.016;2022-11-25T06:17:55;100421.77;;;6.91;49.95
56176;BME280;63065;51.082;17.016;2022-11-25T06:20:21;100424.75;;;6.94;49.87
56176;BME280;63065;51.082;17.016;2022-11-25T06:22:46;100427.66;;;6.91;49.96
56176;BME280;63065;51.082;17.016;2022-11-25T06:25:12;100432.50;;;6.86;50.05
56176;BME280;63065;51.082;17.016;2022-11-25T06:27:37;100433.71;;;7.03;50.02
56176;BME280;63065;51.082;17.016;2022-11-25T06:30:04;100437.23;;;6.62;50.07
56176;BME280;63065;51.082;17.016;2022-11-25T06:32:29;100439.12;;;6.82;50.20
56176;BME280;63065;51.082;17.016;2022-11-25T06:34:54;100439.76;;;6.97;49.96
56176;BME280;63065;51.082;17.016;2022-11-25T06:37:20;100445.93;;;6.89;50.02
56176;BME280;63065;51.082;17.016;2022-11-25T06:39:45;100445.24;;;6.86;50.13
56176;BME280;63065;51.082;17.016;2022-11-25T06:42:11;100450.36;;;6.90;50.11
56176;BME280;63065;51.082;17.016;2022-11-25T06:44:36;100447.17;;;6.92;50.18
56176;BME280;63065;51.082;17.016;2022-11-25T06:47:02;100445.65;;;6.88;50.04
56176;BME280;63065;51.082;17.016;2022-11-25T06:49:27;100444.50;;;6.70;50.10
56176;BME280;63065;51.082;17.016;2022-11-25T06:51:52;100445.86;;;6.89;49.88
56176;BME280;63065;51.082;17.016;2022-11-25T06:54:18;100447.25;;;6.88;50.00
56176;BME280;63065;51.082;17.016;2022-11-25T06:56:43;100447.38;;;7.15;49.88
56176;BME280;63065;51.082;17.016;2022-11-25T06:59:09;100446.49;;;6.93;49.87
56176;BME280;63065;51.082;17.016;2022-11-25T07:01:35;100451.88;;;6.81;49.97
56176;BME280;63065;51.082;17.016;2022-11-25T07:04:02;100453.13;;;6.77;50.04
56176;BME280;63065;51.082;17.016;2022-11-25T07:06:25;100454.70;;;6.80;50.10
56176;BME280;63065;51.082;17.016;2022-11-25T07:08:50;100458.06;;;6.91;50.00
56176;BME280;63065;51.082;17.016;2022-11-25T07:11:17;100460.08;;;6.97;49.81
56176;BME280;63065;51.082;17.016;2022-11-25T07:13:41;100463.21;;;6.94;49.90
56176;BME280;63065;51.082;17.016;2022-11-25T07:16:09;100465.30;;;7.00;49.90
56176;BME280;63065;51.082;17.016;2022-11-25T07:18:34;100465.73;;;7.05;49.79
56176;BME280;63065;51.082;17.016;2022-11-25T07:21:02;100465.32;;;7.04;49.80
56176;BME280;63065;51.082;17.016;2022-11-25T07:23:23;100468.19;;;7.00;49.74
56176;BME280;63065;51.082;17.016;2022-11-25T07:25:49;100470.09;;;7.06;49.85
56176;BME280;63065;51.082;17.016;2022-11-25T07:28:14;100471.42;;;7.11;49.86
56176;BME280;63065;51.082;17.016;2022-11-25T07:30:40;100473.78;;;7.06;49.89
56176;BME280;63065;51.082;17.016;2022-11-25T07:33:06;100471.68;;;6.96;49.96
56176;BME280;63065;51.082;17.016;2022-11-25T07:35:33;100473.38;;;7.27;49.94
56176;BME280;63065;51.082;17.016;2022-11-25T07:37:57;100475.59;;;7.23;50.32
56176;BME280;63065;51.082;17.016;2022-11-25T07:40:22;100478.79;;;7.14;50.33
56176;BME280;63065;51.082;17.016;2022-11-25T07:42:48;100477.58;;;7.14;50.34
56176;BME280;63065;51.082;17.016;2022-11-25T07:45:14;100478.08;;;7.22;50.24
56176;BME280;63065;51.082;17.016;2022-11-25T07:47:39;100478.06;;;7.30;50.23
56176;BME280;63065;51.082;17.016;2022-11-25T07:50:06;100477.62;;;7.40;50.03
56176;BME280;63065;51.082;17.016;2022-11-25T07:52:30;100482.44;;;7.07;50.93
56176;BME280;63065;51.082;17.016;2022-11-25T07:54:55;100481.53;;;6.86;51.39
56176;BME280;63065;51.082;17.016;2022-11-25T07:57:21;100478.34;;;6.74;51.74
56176;BME280;63065;51.082;17.016;2022-11-25T07:59:47;100477.76;;;6.86;51.54
56176;BME280;63065;51.082;17.016;2022-11-25T08:02:12;100479.57;;;7.26;51.14
56176;BME280;63065;51.082;17.016;2022-11-25T08:04:38;100481.61;;;7.27;50.83
56176;BME280;63065;51.082;17.016;2022-11-25T08:07:03;100484.16;;;7.53;50.47
56176;BME280;63065;51.082;17.016;2022-11-25T08:09:29;100486.21;;;7.15;50.08
56176;BME280;63065;51.082;17.016;2022-11-25T08:11:55;100490.19;;;7.40;50.05
56176;BME280;63065;51.082;17.016;2022-11-25T08:14:19;100493.05;;;7.58;50.35
56176;BME280;63065;51.082;17.016;2022-11-25T08:16:45;100491.56;;;7.64;50.01
56176;BME280;63065;51.082;17.016;2022-11-25T08:19:12;100490.53;;;7.51;50.14
56176;BME280;63065;51.082;17.016;2022-11-25T08:21:36;100490.49;;;7.42;50.31
56176;BME280;63065;51.082;17.016;2022-11-25T08:24:01;100484.60;;;7.28;50.53
56176;BME280;63065;51.082;17.016;2022-11-25T08:26:28;100487.69;;;7.58;51.10
56176;BME280;63065;51.082;17.016;2022-11-25T08:28:51;100487.75;;;7.38;51.12
56176;BME280;63065;51.082;17.016;2022-11-25T08:31:19;100487.02;;;7.67;50.84
56176;BME280;63065;51.082;17.016;2022-11-25T08:33:44;100483.61;;;7.67;50.91
56176;BME280;63065;51.082;17.016;2022-11-25T08:36:09;100483.07;;;7.55;50.97
56176;BME280;63065;51.082;17.016;2022-11-25T08:38:33;100485.77;;;7.71;51.14
56176;BME280;63065;51.082;17.016;2022-11-25T08:40:59;100490.69;;;7.96;51.20
56176;BME280;63065;51.082;17.016;2022-11-25T08:43:23;100492.53;;;7.93;51.07
56176;BME280;63065;51.082;17.016;2022-11-25T08:45:49;100494.56;;;7.90;51.03
56176;BME280;63065;51.082;17.016;2022-11-25T08:48:14;100495.47;;;8.20;50.60
56176;BME280;63065;51.082;17.016;2022-11-25T08:50:40;100497.65;;;8.26;51.04
56176;BME280;63065;51.082;17.016;2022-11-25T08:53:05;100497.21;;;8.44;50.77
56176;BME280;63065;51.082;17.016;2022-11-25T08:55:30;100496.42;;;8.56;50.50
56176;BME280;63065;51.082;17.016;2022-11-25T08:57:55;100497.51;;;8.48;50.60
56176;BME280;63065;51.082;17.016;2022-11-25T09:00:22;100498.61;;;8.53;50.40
56176;BME280;63065;51.082;17.016;2022-11-25T09:02:47;100501.31;;;8.38;50.54
56176;BME280;63065;51.082;17.016;2022-11-25T09:05:15;100503.17;;;8.58;50.22
56176;BME280;63065;51.082;17.016;2022-11-25T09:07:38;100506.04;;;8.65;50.11
56176;BME280;63065;51.082;17.016;2022-11-25T09:10:05;100507.29;;;8.54;49.92
56176;BME280;63065;51.082;17.016;2022-11-25T09:12:29;100508.54;;;8.81;49.91
56176;BME280;63065;51.082;17.016;2022-11-25T09:14:54;100508.03;;;8.69;49.77
56176;BME280;63065;51.082;17.016;2022-11-25T09:17:19;100510.80;;;8.99;49.52
56176;BME280;63065;51.082;17.016;2022-11-25T09:19:45;100512.25;;;8.90;49.55
56176;BME280;63065;51.082;17.016;2022-11-25T09:22:10;100513.53;;;8.94;49.74
56176;BME280;63065;51.082;17.016;2022-11-25T09:24:36;100516.52;;;8.96;49.68
56176;BME280;63065;51.082;17.016;2022-11-25T09:27:01;100514.90;;;9.18;49.59
56176;BME280;63065;51.082;17.016;2022-11-25T09:29:26;100512.83;;;8.59;49.43
56176;BME280;63065;51.082;17.016;2022-11-25T09:31:52;100507.72;;;8.85;49.65
56176;BME280;63065;51.082;17.016;2022-11-25T09:34:17;100505.31;;;8.54;49.59
56176;BME280;63065;51.082;17.016;2022-11-25T09:36:43;100501.22;;;8.88;49.15
56176;BME280;63065;51.082;17.016;2022-11-25T09:39:08;100500.25;;;8.75;49.29
56176;BME280;63065;51.082;17.016;2022-11-25T09:41:44;100500.22;;;9.03;49.49
56176;BME280;63065;51.082;17.016;2022-11-25T09:44:04;100501.39;;;8.97;49.49
56176;BME280;63065;51.082;17.016;2022-11-25T09:46:37;100500.61;;;9.07;49.55
56176;BME280;63065;51.082;17.016;2022-11-25T09:48:58;100500.79;;;9.01;49.20
56176;BME280;63065;51.082;17.016;2022-11-25T09:51:20;100500.00;;;9.13;49.17
56176;BME280;63065;51.082;17.016;2022-11-25T09:53:43;100499.61;;;9.27;48.94
56176;BME280;63065;51.082;17.016;2022-11-25T09:56:13;100501.19;;;9.36;48.86
56176;BME280;63065;51.082;17.016;2022-11-25T09:58:34;100503.88;;;9.08;48.78
56176;BME280;63065;51.082;17.016;2022-11-25T10:00:57;100498.02;;;9.33;48.86
56176;BME280;63065;51.082;17.016;2022-11-25T10:03:31;100495.81;;;9.47;48.19
56176;BME280;63065;51.082;17.016;2022-11-25T10:05:54;100492.95;;;9.26;48.58
56176;BME280;63065;51.082;17.016;2022-11-25T10:08:16;100493.20;;;9.12;48.66
56176;BME280;63065;51.082;17.016;2022-11-25T10:10:43;100493.48;;;9.04;48.73
56176;BME280;63065;51.082;17.016;2022-11-25T10:13:05;100494.03;;;9.15;49.62
56176;BME280;63065;51.082;17.016;2022-11-25T10:15:33;100493.86;;;9.02;49.58
56176;BME280;63065;51.082;17.016;2022-11-25T10:17:59;100495.27;;;9.35;49.07
56176;BME280;63065;51.082;17.016;2022-11-25T10:20:22;100493.85;;;8.86;49.50
56176;BME280;63065;51.082;17.016;2022-11-25T10:22:48;100495.65;;;8.96;49.64
56176;BME280;63065;51.082;17.016;2022-11-25T10:25:15;100494.57;;;9.10;49.37
56176;BME280;63065;51.082;17.016;2022-11-25T10:27:41;100495.47;;;9.21;49.30
56176;BME280;63065;51.082;17.016;2022-11-25T10:30:09;100495.47;;;9.18;49.38
56176;BME280;63065;51.082;17.016;2022-11-25T10:32:32;100495.54;;;9.31;48.93
56176;BME280;63065;51.082;17.016;2022-11-25T10:34:56;100495.32;;;9.38;49.08
56176;BME280;63065;51.082;17.016;2022-11-25T10:37:25;100495.90;;;9.44;48.54
56176;BME280;63065;51.082;17.016;2022-11-25T10:39:44;100494.57;;;9.52;48.23
56176;BME280;63065;51.082;17.016;2022-11-25T10:42:14;100496.22;;;9.79;48.30
56176;BME280;63065;51.082;17.016;2022-11-25T10:44:36;100499.38;;;9.65;48.57
56176;BME280;63065;51.082;17.016;2022-11-25T10:47:13;100500.34;;;9.34;48.38
56176;BME280;63065;51.082;17.016;2022-11-25T10:49:29;100500.41;;;9.49;49.08
56176;BME280;63065;51.082;17.016;2022-11-25T10:51:50;100500.67;;;9.41;49.27
56176;BME280;63065;51.082;17.016;2022-11-25T10:54:18;100504.14;;;9.39;49.43
56176;BME280;63065;51.082;17.016;2022-11-25T10:56:45;100504.11;;;9.44;49.36
56176;BME280;63065;51.082;17.016;2022-11-25T10:59:12;100507.23;;;9.19;49.44
56176;BME280;63065;51.082;17.016;2022-11-25T11:01:32;100508.66;;;9.45;49.48
56176;BME280;63065;51.082;17.016;2022-11-25T11:04:04;100508.22;;;9.39;49.49
56176;BME280;63065;51.082;17.016;2022-11-25T11:06:29;100509.53;;;9.84;49.06
56176;BME280;63065;51.082;17.016;2022-11-25T11:08:49;100508.81;;;9.69;48.88
56176;BME280;63065;51.082;17.016;2022-11-25T11:11:17;100507.64;;;9.75;48.66
56176;BME280;63065;51.082;17.016;2022-11-25T11:13:40;100506.80;;;10.00;48.54
56176;BME280;63065;51.082;17.016;2022-11-25T11:18:39;100510.36;;;9.72;48.20
56176;BME280;63065;51.082;17.016;2022-11-25T11:20:57;100507.41;;;9.68;48.58
56176;BME280;63065;51.082;17.016;2022-11-25T11:23:21;100509.29;;;10.09;48.42
56176;BME280;63065;51.082;17.016;2022-11-25T11:25:55;100508.61;;;9.95;48.34
56176;BME280;63065;51.082;17.016;2022-11-25T11:30:51;100504.09;;;10.24;47.48
56176;BME280;63065;51.082;17.016;2022-11-25T11:33:05;100496.85;;;10.21;47.18
56176;BME280;63065;51.082;17.016;2022-11-25T11:35:40;100500.03;;;10.30;47.27
56176;BME280;63065;51.082;17.016;2022-11-25T11:37:56;100500.24;;;10.42;47.47
56176;BME280;63065;51.082;17.016;2022-11-25T11:40:26;100498.83;;;10.41;47.40
56176;BME280;63065;51.082;17.016;2022-11-25T11:42:55;100500.52;;;10.41;47.24
56176;BME280;63065;51.082;17.016;2022-11-25T11:45:19;100496.52;;;10.13;47.21
56176;BME280;63065;51.082;17.016;2022-11-25T11:47:44;100498.51;;;10.24;47.29
56176;BME280;63065;51.082;17.016;2022-11-25T11:52:35;100498.37;;;10.29;46.11
56176;BME280;63065;51.082;17.016;2022-11-25T11:54:53;100498.62;;;10.28;47.10
56176;BME280;63065;51.082;17.016;2022-11-25T11:57:25;100497.50;;;10.54;46.83
56176;BME280;63065;51.082;17.016;2022-11-25T11:59:45;100499.70;;;10.47;46.83
56176;BME280;63065;51.082;17.016;2022-11-25T12:02:19;100497.25;;;10.31;47.11
56176;BME280;63065;51.082;17.016;2022-11-25T12:04:38;100496.46;;;10.32;47.10
56176;BME280;63065;51.082;17.016;2022-11-25T12:07:04;100496.63;;;10.41;47.21
56176;BME280;63065;51.082;17.016;2022-11-25T12:09:26;100498.41;;;10.56;47.28
56176;BME280;63065;51.082;17.016;2022-11-25T12:11:53;100500.37;;;10.83;46.32
56176;BME280;63065;51.082;17.016;2022-11-25T12:14:24;100502.26;;;10.52;46.80
56176;BME280;63065;51.082;17.016;2022-11-25T12:16:43;100501.51;;;10.48;47.12
56176;BME280;63065;51.082;17.016;2022-11-25T12:19:11;100497.49;;;10.32;46.93
56176;BME280;63065;51.082;17.016;2022-11-25T12:21:38;100496.45;;;10.39;47.00
56176;BME280;63065;51.082;17.016;2022-11-25T12:24:00;100491.28;;;10.54;47.09
56176;BME280;63065;51.082;17.016;2022-11-25T12:26:28;100490.28;;;10.32;46.83
56176;BME280;63065;51.082;17.016;2022-11-25T12:28:53;100488.34;;;10.70;46.93
56176;BME280;63065;51.082;17.016;2022-11-25T12:31:19;100489.09;;;10.66;46.88
56176;BME280;63065;51.082;17.016;2022-11-25T12:33:45;100490.61;;;10.59;46.58
56176;BME280;63065;51.082;17.016;2022-11-25T12:36:08;100490.01;;;10.75;46.18
56176;BME280;63065;51.082;17.016;2022-11-25T12:38:36;100493.23;;;10.61;46.50
56176;BME280;63065;51.082;17.016;2022-11-25T12:41:01;100494.24;;;10.74;46.19
56176;BME280;63065;51.082;17.016;2022-11-25T12:43:26;100492.69;;;10.58;46.26
56176;BME280;63065;51.082;17.016;2022-11-25T12:45:50;100496.71;;;10.52;46.69